Time;durP1;ratioP1;P1;durP2;ratioP2;P2;SDS_P1;SDS_P2;PMS_P1;PMS_P2;Temp;Humidity;BMP_temperature;BMP_pressure;BME280_temperature;BME280_humidity;BME280_pressure;Samples;Min_cycle;Max_cycle;Signal;HPM_P1;HPM_P2
2023/09/13 00:01:47;;;;;;;3.05;2.08;;;20.00;99.90;;;;;;5010189;28;20115;-86
2023/09/13 00:04:13;;;;;;;0.52;0.45;;;20.10;99.90;;;;;;5010536;28;20026;-84
2023/09/13 00:06:39;;;;;;;0.90;0.90;;;20.20;99.90;;;;;;5008968;28;20041;-83
2023/09/13 00:09:08;;;;;;;8.05;3.58;;;20.20;99.90;;;;;;5010623;28;20034;-83
2023/09/13 00:11:37;;;;;;;2.90;2.70;;;20.10;99.90;;;;;;5009122;28;20025;-85
2023/09/13 00:14:03;;;;;;;0.63;0.63;;;20.20;99.90;;;;;;5010093;28;20038;-85
2023/09/13 00:16:29;;;;;;;2.67;1.65;;;20.40;99.90;;;;;;5010434;28;20029;-86
2023/09/13 00:18:54;;;;;;;2.97;1.92;;;20.40;99.90;;;;;;5010124;28;20054;-82
2023/09/13 00:21:20;;;;;;;0.47;0.45;;;20.20;99.90;;;;;;5010366;28;20532;-85
2023/09/13 00:23:46;;;;;;;8.40;5.05;;;20.10;99.90;;;;;;5009962;28;20034;-85
2023/09/13 00:26:14;;;;;;;3.50;1.95;;;20.00;99.90;;;;;;5010402;28;20022;-85
2023/09/13 00:28:41;;;;;;;0.85;0.85;;;20.20;99.90;;;;;;5008646;28;20121;-85
2023/09/13 00:31:10;;;;;;;14.27;5.38;;;19.80;99.90;;;;;;5009296;28;20101;-84
2023/09/13 00:33:36;;;;;;;4.95;3.25;;;20.10;99.90;;;;;;5008766;28;20045;-85
2023/09/13 00:36:02;;;;;;;4.22;3.00;;;19.90;99.90;;;;;;5009722;28;20079;-84
2023/09/13 00:38:28;;;;;;;2.75;2.53;;;19.80;99.90;;;;;;5010676;28;20025;-86
2023/09/13 00:40:55;;;;;;;5.10;4.68;;;19.70;99.90;;;;;;5009900;28;20101;-86
2023/09/13 00:43:21;;;;;;;0.50;0.50;;;19.60;99.90;;;;;;5009860;28;20534;-87
2023/09/13 00:45:50;;;;;;;1.08;1.08;;;19.80;99.90;;;;;;5008519;28;20034;-85
2023/09/13 00:48:17;;;;;;;0.10;0.10;;;19.90;99.90;;;;;;5010031;28;20067;-86
2023/09/13 00:50:45;;;;;;;2.45;0.85;;;20.20;99.90;;;;;;5009650;28;20026;-86
2023/09/13 00:53:11;;;;;;;0.00;0.00;;;20.00;99.90;;;;;;5008707;28;20113;-86
2023/09/13 00:55:38;;;;;;;0.63;0.63;;;19.90;99.90;;;;;;5008435;28;20477;-86
2023/09/13 00:58:05;;;;;;;2.47;2.20;;;20.20;99.90;;;;;;5009441;28;20480;-86
2023/09/13 01:00:34;;;;;;;10.18;2.45;;;20.40;99.90;;;;;;5009840;28;20394;-85
2023/09/13 01:03:03;;;;;;;0.00;0.00;;;20.00;99.90;;;;;;5009661;28;20026;-86
2023/09/13 01:05:29;;;;;;;0.40;0.40;;;20.20;99.90;;;;;;5008622;28;20108;-85
2023/09/13 01:07:55;;;;;;;2.95;2.45;;;20.40;99.90;;;;;;5008147;28;20190;-86
2023/09/13 01:10:21;;;;;;;0.00;0.00;;;20.10;99.90;;;;;;5009900;28;20018;-86
2023/09/13 01:12:47;;;;;;;5.55;2.78;;;19.70;99.90;;;;;;5007834;28;20026;-84
2023/09/13 01:15:13;;;;;;;0.77;0.77;;;19.50;99.90;;;;;;5009459;28;20490;-86
2023/09/13 01:18:00;;;;;;;0.43;0.30;;;19.40;99.90;;;;;;5008292;28;20022;-86
2023/09/13 01:21:00;;;;;;;0.20;0.20;;;19.60;99.90;;;;;;5008263;28;20033;-86
2023/09/13 01:23:47;;;;;;;0.10;0.10;;;19.60;99.90;;;;;;5011622;28;20741;-86
2023/09/13 01:26:31;;;;;;;0.05;0.05;;;19.80;99.90;;;;;;5002087;28;20063;-86
2023/09/13 01:28:59;;;;;;;7.88;5.30;;;19.70;99.90;;;;;;5011565;28;20057;-86
2023/09/13 01:31:27;;;;;;;1.75;1.65;;;19.60;99.90;;;;;;5012673;28;20501;-85
2023/09/13 01:33:54;;;;;;;0.80;0.65;;;19.50;99.90;;;;;;5011110;28;20045;-83
2023/09/13 01:36:21;;;;;;;3.45;1.55;;;19.80;99.90;;;;;;5011449;28;20067;-86
2023/09/13 01:38:46;;;;;;;7.32;3.72;;;19.90;99.90;;;;;;5011170;28;20486;-85
2023/09/13 01:41:31;;;;;;;0.10;0.10;;;19.80;99.90;;;;;;5012527;28;20424;-85
2023/09/13 01:43:58;;;;;;;0.15;0.15;;;20.10;99.90;;;;;;5010988;28;20382;-86
2023/09/13 01:46:32;;;;;;;0.73;0.73;;;20.00;99.90;;;;;;5012631;28;20049;-85
2023/09/13 01:49:01;;;;;;;10.05;3.38;;;19.80;99.90;;;;;;5012168;28;20029;-85
2023/09/13 01:51:27;;;;;;;2.35;1.23;;;19.60;99.90;;;;;;5012570;28;20103;-85
2023/09/13 01:53:54;;;;;;;0.90;0.90;;;19.80;99.90;;;;;;5012112;28;20030;-82
2023/09/13 01:56:21;;;;;;;8.60;3.75;;;19.80;99.90;;;;;;5012134;28;20026;-85
2023/09/13 01:58:50;;;;;;;9.48;0.85;;;19.50;99.90;;;;;;5010973;28;20062;-84
2023/09/13 02:01:17;;;;;;;3.28;2.15;;;19.60;99.90;;;;;;5010706;28;20034;-84
2023/09/13 02:03:44;;;;;;;0.00;0.00;;;19.40;99.90;;;;;;5010922;28;20022;-84
2023/09/13 02:06:11;;;;;;;0.80;0.75;;;19.50;99.90;;;;;;5012149;28;20022;-85
2023/09/13 02:08:37;;;;;;;28.17;2.65;;;19.20;99.90;;;;;;5012105;28;20453;-86
2023/09/13 02:11:06;;;;;;;3.00;0.90;;;19.30;99.90;;;;;;5011707;28;20022;-84
2023/09/13 02:13:33;;;;;;;0.68;0.65;;;19.30;99.90;;;;;;5010502;28;20428;-86
2023/09/13 02:15:59;;;;;;;0.13;0.13;;;19.50;99.90;;;;;;5010984;28;20033;-83
2023/09/13 02:18:25;;;;;;;1.05;1.00;;;19.40;99.90;;;;;;5011882;28;20033;-84
2023/09/13 02:20:50;;;;;;;1.88;1.48;;;19.60;99.90;;;;;;5012137;28;20026;-86
2023/09/13 02:23:16;;;;;;;0.00;0.00;;;19.70;99.90;;;;;;5011883;28;20563;-83
2023/09/13 02:25:45;;;;;;;41.85;15.20;;;19.70;99.90;;;;;;5011756;28;20477;-85
2023/09/13 02:28:12;;;;;;;10.65;6.35;;;19.30;99.90;;;;;;5011822;28;20026;-84
2023/09/13 02:30:39;;;;;;;6.47;4.70;;;19.50;99.90;;;;;;4995497;28;20034;-85
2023/09/13 02:33:06;;;;;;;10.70;6.32;;;19.30;99.90;;;;;;4997230;28;20038;-84
2023/09/13 02:35:32;;;;;;;4.22;3.53;;;19.50;99.90;;;;;;5010036;28;20406;-84
2023/09/13 02:37:58;;;;;;;3.20;2.95;;;19.30;99.90;;;;;;5011519;28;20132;-85
2023/09/13 02:40:25;;;;;;;0.63;0.55;;;19.40;99.90;;;;;;5010392;28;20030;-85
2023/09/13 02:42:51;;;;;;;0.77;0.77;;;19.50;99.90;;;;;;5010017;28;20010;-86
2023/09/13 02:45:17;;;;;;;8.80;6.57;;;19.70;99.90;;;;;;5011695;28;20026;-85
2023/09/13 02:47:43;;;;;;;0.98;0.85;;;19.50;99.90;;;;;;5010436;28;20030;-85
2023/09/13 02:50:10;;;;;;;0.03;0.03;;;19.40;99.90;;;;;;5010200;28;20037;-85
2023/09/13 02:52:36;;;;;;;19.95;9.20;;;19.60;99.90;;;;;;5011264;28;20030;-84
2023/09/13 02:55:05;;;;;;;1.77;0.75;;;19.60;99.90;;;;;;5009885;28;20083;-84
2023/09/13 02:57:32;;;;;;;22.63;7.32;;;19.50;99.90;;;;;;5010054;28;20026;-85
2023/09/13 02:59:58;;;;;;;15.80;5.95;;;19.50;99.90;;;;;;5009850;28;20069;-86
2023/09/13 03:02:24;;;;;;;1.50;1.40;;;19.60;99.90;;;;;;5011352;28;20052;-85
2023/09/13 03:04:53;;;;;;;1.35;1.33;;;19.40;99.90;;;;;;5011328;28;20029;-85
2023/09/13 03:07:21;;;;;;;6.50;4.82;;;19.50;99.90;;;;;;5010249;28;20046;-84
2023/09/13 03:09:53;;;;;;;0.30;0.30;;;19.50;99.90;;;;;;5009506;28;20029;-82
2023/09/13 03:12:19;;;;;;;0.08;0.08;;;19.60;99.90;;;;;;5010092;28;20025;-85
2023/09/13 03:14:47;;;;;;;2.53;0.88;;;19.80;99.90;;;;;;5009663;28;20034;-84
2023/09/13 03:17:13;;;;;;;0.30;0.30;;;19.90;99.90;;;;;;5010287;28;20428;-86
2023/09/13 03:19:39;;;;;;;4.88;3.28;;;19.90;99.90;;;;;;5009862;28;20071;-85
2023/09/13 03:22:06;;;;;;;6.50;1.30;;;20.00;99.90;;;;;;5009890;28;20097;-86
2023/09/13 03:24:32;;;;;;;6.22;2.88;;;19.90;99.90;;;;;;4993366;28;20117;-85
2023/09/13 03:26:57;;;;;;;17.27;3.72;;;19.90;99.90;;;;;;5009676;28;20028;-85
2023/09/13 03:29:23;;;;;;;20.88;4.95;;;19.90;99.90;;;;;;5010666;28;20030;-85
2023/09/13 03:31:50;;;;;;;4.57;4.15;;;19.80;99.90;;;;;;5009263;28;20029;-81
2023/09/13 03:34:16;;;;;;;3.10;2.30;;;19.80;99.90;;;;;;5009409;28;20034;-85
2023/09/13 03:36:43;;;;;;;2.08;1.98;;;19.60;99.90;;;;;;5009469;28;20037;-84
2023/09/13 03:39:09;;;;;;;0.10;0.10;;;19.80;99.90;;;;;;5009116;28;20159;-86
2023/09/13 03:41:35;;;;;;;0.63;0.63;;;19.80;99.90;;;;;;5009603;28;20034;-84
2023/09/13 03:44:03;;;;;;;14.10;6.30;;;19.60;99.90;;;;;;5008964;28;20117;-84
2023/09/13 03:46:29;;;;;;;0.90;0.73;;;19.40;99.90;;;;;;5009424;28;20068;-84
2023/09/13 03:48:57;;;;;;;21.35;9.25;;;19.40;99.90;;;;;;5010416;28;20014;-81
2023/09/13 03:51:23;;;;;;;1.15;1.13;;;19.40;99.90;;;;;;5009091;28;20044;-84
2023/09/13 03:53:50;;;;;;;8.20;5.40;;;19.50;99.90;;;;;;5009051;28;20557;-85
2023/09/13 03:56:15;;;;;;;0.13;0.10;;;19.70;99.90;;;;;;5010468;28;20030;-84
2023/09/13 03:58:42;;;;;;;11.90;7.45;;;19.80;99.90;;;;;;5009368;28;20018;-84
2023/09/13 04:01:08;;;;;;;22.55;3.63;;;19.50;99.90;;;;;;5010275;28;20531;-84
2023/09/13 04:03:34;;;;;;;1.02;1.00;;;19.10;99.90;;;;;;5009048;28;20034;-85
2023/09/13 04:06:00;;;;;;;0.10;0.10;;;19.30;99.90;;;;;;5009896;28;20105;-84
2023/09/13 04:08:28;;;;;;;2.38;1.52;;;19.30;99.90;;;;;;5010246;28;20030;-83
2023/09/13 04:10:54;;;;;;;0.57;0.57;;;19.20;99.90;;;;;;5009779;28;20038;-86
2023/09/13 04:13:20;;;;;;;0.10;0.10;;;19.30;99.90;;;;;;5008319;28;20025;-86
2023/09/13 04:15:46;;;;;;;2.13;2.05;;;19.10;99.90;;;;;;5009980;28;20402;-82
2023/09/13 04:18:13;;;;;;;0.05;0.05;;;19.30;99.90;;;;;;5008766;28;20084;-84
2023/09/13 04:20:43;;;;;;;2.08;1.90;;;19.60;99.90;;;;;;5008324;28;20022;-85
2023/09/13 04:23:09;;;;;;;12.13;4.85;;;19.60;99.90;;;;;;5009818;28;20034;-84
2023/09/13 04:25:36;;;;;;;1.45;0.98;;;19.30;99.90;;;;;;5009035;28;20126;-86
2023/09/13 04:28:05;;;;;;;3.47;2.75;;;19.00;99.90;;;;;;5008795;28;20029;-85
2023/09/13 04:30:31;;;;;;;10.10;2.78;;;19.20;99.90;;;;;;5008318;28;20080;-85
2023/09/13 04:33:02;;;;;;;0.00;0.00;;;19.20;99.90;;;;;;5008473;28;20034;-85
2023/09/13 04:35:28;;;;;;;5.85;4.00;;;19.30;99.90;;;;;;5008019;28;20034;-84
2023/09/13 04:37:54;;;;;;;12.68;7.45;;;18.90;99.90;;;;;;5008554;28;20022;-85
2023/09/13 04:40:21;;;;;;;1.70;1.60;;;18.70;99.90;;;;;;5008469;28;20042;-83
2023/09/13 04:43:15;;;;;;;2.65;2.45;;;18.80;99.90;;;;;;5008611;28;20113;-82
2023/09/13 04:45:42;;;;;;;0.00;0.00;;;19.20;99.90;;;;;;5008196;28;20049;-84
2023/09/13 04:48:07;;;;;;;0.82;0.82;;;19.30;99.90;;;;;;5008541;28;20053;-85
2023/09/13 04:50:33;;;;;;;13.48;2.03;;;19.40;99.90;;;;;;5008128;28;20555;-84
2023/09/13 04:53:00;;;;;;;3.67;3.38;;;19.50;99.90;;;;;;5008289;28;20482;-83
2023/09/13 04:55:27;;;;;;;0.30;0.30;;;19.50;99.90;;;;;;5008202;28;20042;-84
2023/09/13 04:57:53;;;;;;;0.15;0.15;;;19.50;99.90;;;;;;5011169;28;20025;-84
2023/09/13 05:00:19;;;;;;;0.15;0.15;;;19.40;99.90;;;;;;5011609;28;20070;-84
2023/09/13 05:02:45;;;;;;;0.77;0.77;;;19.40;99.90;;;;;;5012714;28;20122;-84
2023/09/13 05:05:11;;;;;;;2.05;1.10;;;19.10;99.90;;;;;;5011584;28;20363;-80
2023/09/13 05:07:37;;;;;;;3.80;1.02;;;19.10;99.90;;;;;;5011605;28;20159;-84
2023/09/13 05:10:03;;;;;;;1.77;1.65;;;19.30;99.90;;;;;;5013175;28;20021;-79
2023/09/13 05:12:28;;;;;;;0.03;0.03;;;19.30;99.90;;;;;;5024527;28;20489;-80
2023/09/13 05:14:54;;;;;;;12.55;3.50;;;19.30;99.90;;;;;;5022074;28;20167;-78
2023/09/13 05:17:20;;;;;;;0.20;0.20;;;19.10;99.90;;;;;;5031217;28;20095;-77
2023/09/13 05:19:46;;;;;;;3.80;2.13;;;19.10;99.90;;;;;;5050985;28;20476;-80
2023/09/13 05:22:11;;;;;;;1.02;1.00;;;19.00;99.90;;;;;;5038378;28;20041;-80
2023/09/13 05:24:37;;;;;;;1.17;1.13;;;19.20;99.90;;;;;;5025774;28;20463;-81
2023/09/13 05:27:03;;;;;;;4.70;3.28;;;19.20;99.90;;;;;;5025739;28;20030;-80
2023/09/13 05:29:29;;;;;;;0.68;0.68;;;19.10;99.90;;;;;;5016923;28;20084;-79
2023/09/13 05:31:55;;;;;;;4.05;1.55;;;19.40;99.90;;;;;;5046585;28;20091;-81
2023/09/13 05:34:21;;;;;;;9.80;4.03;;;19.60;99.90;;;;;;5033778;28;20037;-80
2023/09/13 05:36:47;;;;;;;0.00;0.00;;;19.20;99.90;;;;;;5022482;28;20026;-78
2023/09/13 05:39:12;;;;;;;0.10;0.10;;;19.20;99.90;;;;;;5045993;28;20372;-80
2023/09/13 05:41:38;;;;;;;1.90;1.75;;;19.30;99.90;;;;;;5034698;28;20350;-80
2023/09/13 05:44:09;;;;;;;0.00;0.00;;;19.20;99.90;;;;;;5042587;28;20018;-80
2023/09/13 05:46:35;;;;;;;2.30;1.35;;;19.50;99.90;;;;;;5025229;28;20390;-77
2023/09/13 05:49:01;;;;;;;0.20;0.20;;;19.20;99.90;;;;;;5027990;28;20018;-80
2023/09/13 05:51:26;;;;;;;5.95;2.83;;;19.20;99.90;;;;;;5027602;28;20033;-76
2023/09/13 05:53:52;;;;;;;9.85;7.00;;;19.20;99.90;;;;;;5051073;28;20505;-80
2023/09/13 05:56:18;;;;;;;1.50;1.40;;;19.10;99.90;;;;;;5038658;28;20101;-80
2023/09/13 05:58:44;;;;;;;2.22;1.73;;;19.00;99.90;;;;;;5025391;28;20041;-82
2023/09/13 06:01:13;;;;;;;1.48;1.38;;;19.40;99.90;;;;;;4982675;28;20375;-82
2023/09/13 06:03:39;;;;;;;0.10;0.10;;;19.30;99.90;;;;;;5013222;28;20030;-79
2023/09/13 06:06:05;;;;;;;0.13;0.13;;;19.40;99.90;;;;;;5046946;28;20403;-78
2023/09/13 06:08:30;;;;;;;2.47;2.22;;;19.40;99.90;;;;;;5032890;28;20486;-79
2023/09/13 06:10:56;;;;;;;1.27;0.65;;;19.60;99.90;;;;;;5029249;28;20119;-79
2023/09/13 06:13:22;;;;;;;1.00;0.85;;;19.50;99.90;;;;;;5024687;28;20045;-80
2023/09/13 06:15:48;;;;;;;6.35;0.70;;;19.70;99.90;;;;;;5056403;28;20027;-79
2023/09/13 06:18:14;;;;;;;0.73;0.73;;;19.80;99.90;;;;;;5082463;28;20065;-81
2023/09/13 06:20:40;;;;;;;0.68;0.68;;;19.90;99.90;;;;;;5050787;28;20106;-80
2023/09/13 06:23:06;;;;;;;7.00;2.05;;;19.80;99.90;;;;;;5050972;28;20414;-77
2023/09/13 06:25:31;;;;;;;4.80;2.38;;;19.80;99.90;;;;;;5012121;28;20026;-81
2023/09/13 06:27:57;;;;;;;0.10;0.10;;;20.00;99.90;;;;;;5062545;28;20031;-80
2023/09/13 06:30:23;;;;;;;0.85;0.85;;;20.10;99.90;;;;;;5043806;28;20486;-77
2023/09/13 06:32:49;;;;;;;0.75;0.57;;;20.00;99.90;;;;;;5047775;28;20379;-78
2023/09/13 06:35:15;;;;;;;1.75;1.65;;;20.10;99.90;;;;;;5039490;28;20034;-81
2023/09/13 06:37:42;;;;;;;0.08;0.08;;;19.90;99.90;;;;;;5049726;28;20053;-78
2023/09/13 06:40:08;;;;;;;1.27;1.20;;;20.00;99.90;;;;;;5095796;28;20055;-79
2023/09/13 06:42:34;;;;;;;0.25;0.25;;;20.20;99.90;;;;;;5033760;28;20018;-79
2023/09/13 06:45:02;;;;;;;2.00;0.73;;;20.10;99.90;;;;;;5052326;28;20389;-78
2023/09/13 06:47:30;;;;;;;0.00;0.00;;;20.10;99.90;;;;;;5021289;28;20050;-80
2023/09/13 06:49:56;;;;;;;0.32;0.32;;;20.20;99.90;;;;;;5060160;28;20046;-77
2023/09/13 06:52:22;;;;;;;0.45;0.45;;;20.50;99.90;;;;;;5077299;27;20082;-80
2023/09/13 06:54:48;;;;;;;0.00;0.00;;;20.10;99.90;;;;;;5052067;28;20042;-78
2023/09/13 06:57:13;;;;;;;2.05;0.43;;;20.40;99.90;;;;;;5048450;28;20068;-79
2023/09/13 06:59:40;;;;;;;0.10;0.10;;;20.30;99.90;;;;;;5011163;28;20124;-78
2023/09/13 07:02:08;;;;;;;0.75;0.75;;;20.10;99.90;;;;;;5067950;28;20479;-80
2023/09/13 07:04:34;;;;;;;1.52;1.42;;;20.00;99.90;;;;;;5060534;28;20033;-77
2023/09/13 07:06:59;;;;;;;0.20;0.20;;;19.90;99.90;;;;;;5056782;28;20466;-79
2023/09/13 07:09:25;;;;;;;11.10;3.03;;;20.10;99.90;;;;;;5022022;28;20094;-80
2023/09/13 07:11:51;;;;;;;2.67;1.33;;;19.90;99.90;;;;;;5026691;28;20177;-80
2023/09/13 07:14:18;;;;;;;1.67;0.93;;;19.90;99.90;;;;;;5015341;28;20034;-80
2023/09/13 07:16:44;;;;;;;0.00;0.00;;;19.80;99.90;;;;;;5033354;28;20025;-80
2023/09/13 07:19:09;;;;;;;0.08;0.08;;;20.10;99.90;;;;;;5079392;28;20424;-79
2023/09/13 07:21:35;;;;;;;2.10;1.13;;;20.20;99.90;;;;;;5058058;28;20043;-81
2023/09/13 07:24:01;;;;;;;0.00;0.00;;;20.50;99.90;;;;;;5024066;28;20025;-77
2023/09/13 07:26:27;;;;;;;1.35;0.68;;;20.40;99.90;;;;;;5010913;28;20030;-80
2023/09/13 07:28:53;;;;;;;0.00;0.00;;;20.10;99.90;;;;;;5076184;28;20082;-79
2023/09/13 07:31:18;;;;;;;0.00;0.00;;;19.90;99.90;;;;;;5037044;28;20019;-80
2023/09/13 07:33:44;;;;;;;0.00;0.00;;;20.00;99.90;;;;;;5043397;28;20391;-80
2023/09/13 07:36:11;;;;;;;0.00;0.00;;;20.20;99.90;;;;;;5019651;28;20038;-77
2023/09/13 07:38:37;;;;;;;0.70;0.63;;;20.30;99.90;;;;;;5078189;28;20070;-76
2023/09/13 07:41:04;;;;;;;0.40;0.35;;;20.20;99.90;;;;;;5079620;28;20109;-78
2023/09/13 07:43:30;;;;;;;0.52;0.52;;;20.10;99.90;;;;;;5049138;28;20027;-78
2023/09/13 07:45:56;;;;;;;0.93;0.60;;;20.00;99.90;;;;;;5028250;28;20025;-80
2023/09/13 07:48:23;;;;;;;0.00;0.00;;;20.20;99.90;;;;;;5015611;28;20378;-79
2023/09/13 07:50:48;;;;;;;4.18;1.63;;;20.00;99.90;;;;;;5049769;28;20443;-80
2023/09/13 07:53:14;;;;;;;5.57;1.65;;;19.90;99.90;;;;;;5067434;28;20031;-79
2023/09/13 07:55:41;;;;;;;2.30;0.80;;;20.10;99.90;;;;;;5016630;28;20034;-79
2023/09/13 07:58:08;;;;;;;0.10;0.10;;;19.90;99.90;;;;;;5009007;28;20017;-80
2023/09/13 08:00:35;;;;;;;0.00;0.00;;;20.10;99.90;;;;;;5009621;28;20033;-85
2023/09/13 08:03:02;;;;;;;0.00;0.00;;;20.30;99.90;;;;;;5011106;28;20497;-83
2023/09/13 08:05:28;;;;;;;0.10;0.10;;;20.30;99.90;;;;;;5010042;28;20109;-80
2023/09/13 08:07:54;;;;;;;0.00;0.00;;;20.30;99.90;;;;;;5009392;28;20143;-78
2023/09/13 08:10:22;;;;;;;0.05;0.05;;;20.20;99.90;;;;;;5008276;28;20113;-81
2023/09/13 08:12:48;;;;;;;0.00;0.00;;;20.30;99.90;;;;;;5008444;28;20049;-81
2023/09/13 08:15:14;;;;;;;0.00;0.00;;;20.50;99.90;;;;;;5008550;28;20030;-81
2023/09/13 08:17:40;;;;;;;0.10;0.10;;;20.60;99.90;;;;;;5010386;28;20026;-81
2023/09/13 08:20:10;;;;;;;0.00;0.00;;;20.60;99.90;;;;;;5010096;28;20055;-81
2023/09/13 08:22:37;;;;;;;0.10;0.10;;;20.40;99.90;;;;;;5009931;28;20561;-79
2023/09/13 08:25:04;;;;;;;0.00;0.00;;;20.20;99.90;;;;;;5010095;28;20508;-81
2023/09/13 08:27:30;;;;;;;0.98;0.43;;;20.10;99.90;;;;;;5009865;28;20042;-82
2023/09/13 08:29:56;;;;;;;0.25;0.13;;;19.90;99.90;;;;;;5009858;28;20101;-80
2023/09/13 08:32:23;;;;;;;0.00;0.00;;;19.90;99.90;;;;;;4995916;28;20518;-81
2023/09/13 08:34:49;;;;;;;0.00;0.00;;;20.10;99.90;;;;;;4993143;28;20038;-80
2023/09/13 08:37:16;;;;;;;1.08;0.38;;;20.30;99.90;;;;;;4993692;28;20379;-80
2023/09/13 08:39:42;;;;;;;0.00;0.00;;;20.50;99.90;;;;;;4994664;28;20022;-81
2023/09/13 08:42:09;;;;;;;0.28;0.28;;;20.40;99.90;;;;;;4996548;28;20022;-81
2023/09/13 08:44:37;;;;;;;0.00;0.00;;;20.50;99.90;;;;;;5011275;28;20162;-81
2023/09/13 08:47:05;;;;;;;0.00;0.00;;;20.10;99.90;;;;;;5009389;28;20082;-81
2023/09/13 08:49:34;;;;;;;0.00;0.00;;;20.20;99.90;;;;;;5009646;28;20539;-81
2023/09/13 08:52:00;;;;;;;0.05;0.05;;;20.20;99.90;;;;;;5009552;28;20049;-79
2023/09/13 08:54:27;;;;;;;0.00;0.00;;;20.00;99.90;;;;;;5009502;28;20461;-80
2023/09/13 08:56:55;;;;;;;0.00;0.00;;;20.10;99.90;;;;;;5009501;28;20022;-82
2023/09/13 08:59:21;;;;;;;0.00;0.00;;;20.00;99.90;;;;;;5009246;28;20034;-79
2023/09/13 09:01:49;;;;;;;0.00;0.00;;;19.90;99.90;;;;;;5009345;28;20034;-78
2023/09/13 09:04:17;;;;;;;0.00;0.00;;;20.20;99.90;;;;;;5009197;28;20406;-79
2023/09/13 09:06:44;;;;;;;0.00;0.00;;;20.20;99.90;;;;;;5009152;28;20463;-82
2023/09/13 09:09:12;;;;;;;0.00;0.00;;;20.30;99.90;;;;;;5009195;28;20026;-81
2023/09/13 09:11:42;;;;;;;0.30;0.30;;;19.90;99.90;;;;;;5009156;28;20022;-82
2023/09/13 09:14:10;;;;;;;0.00;0.00;;;19.60;99.90;;;;;;5009440;28;20501;-80
2023/09/13 09:16:38;;;;;;;0.20;0.20;;;19.90;99.90;;;;;;5009182;28;20022;-80
2023/09/13 09:19:05;;;;;;;0.13;0.10;;;19.80;99.90;;;;;;5009648;28;20030;-81
2023/09/13 09:21:33;;;;;;;0.00;0.00;;;19.80;99.90;;;;;;5007980;28;20079;-80
2023/09/13 09:23:59;;;;;;;0.45;0.22;;;20.10;99.90;;;;;;5009453;28;20018;-81
2023/09/13 09:26:25;;;;;;;0.00;0.00;;;20.20;99.90;;;;;;5009079;28;20474;-78
2023/09/13 09:28:51;;;;;;;0.00;0.00;;;20.20;99.90;;;;;;5009297;28;20022;-81
2023/09/13 09:31:19;;;;;;;0.00;0.00;;;20.40;99.90;;;;;;5009759;28;20500;-81
2023/09/13 09:33:46;;;;;;;0.00;0.00;;;20.70;99.90;;;;;;5009100;28;20038;-81
2023/09/13 09:36:13;;;;;;;1.35;0.52;;;21.10;99.90;;;;;;5009026;28;20038;-80
2023/09/13 09:38:43;;;;;;;0.00;0.00;;;21.20;99.90;;;;;;5009030;28;20393;-81
2023/09/13 09:41:09;;;;;;;0.10;0.10;;;21.30;99.90;;;;;;5008970;28;20053;-82
2023/09/13 09:43:36;;;;;;;0.00;0.00;;;21.50;99.90;;;;;;5011164;28;20077;-82
2023/09/13 09:46:02;;;;;;;0.10;0.05;;;21.80;99.90;;;;;;5012394;28;20026;-80
2023/09/13 09:48:28;;;;;;;0.00;0.00;;;21.70;99.90;;;;;;5012360;28;20159;-80
2023/09/13 09:50:54;;;;;;;0.10;0.10;;;21.80;99.90;;;;;;5012446;28;20029;-81
2023/09/13 09:53:22;;;;;;;0.00;0.00;;;22.20;99.90;;;;;;5012305;28;20401;-82
2023/09/13 09:55:50;;;;;;;0.70;0.30;;;22.20;99.90;;;;;;5012062;28;20121;-82
2023/09/13 09:58:17;;;;;;;0.00;0.00;;;22.20;99.90;;;;;;5011030;28;20018;-81
2023/09/13 10:00:54;;;;;;;0.00;0.00;;;22.10;99.90;;;;;;5008128;28;20100;-81
2023/09/13 10:03:22;;;;;;;0.00;0.00;;;22.30;99.90;;;;;;5008170;28;20478;-81
2023/09/13 10:05:55;;;;;;;0.00;0.00;;;22.20;99.90;;;;;;5011568;28;20014;-81
2023/09/13 10:08:48;;;;;;;0.00;0.00;;;22.50;99.90;;;;;;5011709;28;20488;-78
2023/09/13 10:11:22;;;;;;;0.00;0.00;;;22.40;99.90;;;;;;5001330;28;20065;-81
2023/09/13 10:13:48;;;;;;;0.00;0.00;;;22.50;99.90;;;;;;5010717;28;20046;-78
2023/09/13 10:16:16;;;;;;;0.20;0.10;;;22.00;99.90;;;;;;5012271;28;20112;-80
2023/09/13 10:18:44;;;;;;;0.00;0.00;;;21.90;99.90;;;;;;5011986;28;20026;-81
2023/09/13 10:21:11;;;;;;;0.00;0.00;;;21.70;99.90;;;;;;5011719;28;20386;-80
2023/09/13 10:23:49;;;;;;;0.00;0.00;;;21.80;99.90;;;;;;5010259;28;20033;-81
2023/09/13 10:26:18;;;;;;;0.13;0.13;;;22.00;99.90;;;;;;5011816;28;20044;-81
2023/09/13 10:28:49;;;;;;;2.95;1.58;;;22.20;99.90;;;;;;5011732;28;20026;-80
2023/09/13 10:31:17;;;;;;;2.00;0.60;;;22.60;99.90;;;;;;5011671;28;20030;-79
2023/09/13 10:33:49;;;;;;;0.10;0.10;;;23.10;99.90;;;;;;5011513;28;20030;-79
2023/09/13 10:36:21;;;;;;;;;;;23.30;99.90;;;;;;5012314;28;20495;-82
2023/09/13 10:38:58;;;;;;;0.10;0.10;;;23.00;99.90;;;;;;5011226;28;19955;-80
2023/09/13 10:41:28;;;;;;;1.40;0.95;;;22.80;99.90;;;;;;5011632;28;20033;-81
2023/09/13 10:43:55;;;;;;;0.00;0.00;;;22.70;99.90;;;;;;5011466;28;20022;-82
2023/09/13 10:46:21;;;;;;;0.00;0.00;;;22.90;99.90;;;;;;5011734;28;20079;-82
2023/09/13 10:48:49;;;;;;;0.00;0.00;;;23.50;99.90;;;;;;5011402;28;20037;-79
2023/09/13 10:51:16;;;;;;;0.00;0.00;;;23.60;99.90;;;;;;5011456;28;20112;-81
2023/09/13 10:53:43;;;;;;;0.00;0.00;;;23.40;99.90;;;;;;5010515;28;20030;-81
2023/09/13 10:56:11;;;;;;;0.00;0.00;;;23.10;99.90;;;;;;5011166;28;20026;-81
2023/09/13 10:58:38;;;;;;;0.00;0.00;;;23.40;99.90;;;;;;5011370;28;20022;-81
2023/09/13 11:01:06;;;;;;;0.00;0.00;;;24.00;99.90;;;;;;5009940;28;20037;-81
2023/09/13 11:03:32;;;;;;;0.00;0.00;;;24.20;99.90;;;;;;5011196;28;20022;-79
2023/09/13 11:05:58;;;;;;;0.00;0.00;;;24.10;99.90;;;;;;5010995;28;20478;-82
2023/09/13 11:08:32;;;;;;;0.00;0.00;;;23.90;99.90;;;;;;5010848;28;20022;-77
2023/09/13 11:11:08;;;;;;;0.30;0.30;;;23.30;99.90;;;;;;5010995;28;20061;-87
2023/09/13 11:13:34;;;;;;;0.05;0.00;;;23.90;99.90;;;;;;5011206;28;20078;-89
2023/09/13 11:16:03;;;;;;;0.00;0.00;;;24.70;99.90;;;;;;5011350;28;20041;-86
2023/09/13 11:18:30;;;;;;;0.00;0.00;;;24.70;99.90;;;;;;5011300;28;20038;-78
2023/09/13 11:20:56;;;;;;;0.17;0.17;;;24.80;99.90;;;;;;5010958;28;20091;-88
2023/09/13 11:23:22;;;;;;;0.00;0.00;;;24.60;99.90;;;;;;5010054;28;20065;-81
2023/09/13 11:26:02;;;;;;;0.52;0.13;;;24.80;99.90;;;;;;5011062;28;20112;-89
2023/09/13 11:28:38;;;;;;;0.00;0.00;;;25.10;98.90;;;;;;5011290;28;20022;-85
2023/09/13 11:31:05;;;;;;;0.00;0.00;;;25.10;98.60;;;;;;5024383;28;20026;-80
2023/09/13 11:33:37;;;;;;;0.00;0.00;;;25.10;99.10;;;;;;5019622;28;20030;-82
2023/09/13 11:36:04;;;;;;;0.00;0.00;;;25.50;98.60;;;;;;5024825;28;20030;-79
2023/09/13 11:38:30;;;;;;;0.28;0.17;;;25.80;97.50;;;;;;5026534;28;20018;-84
2023/09/13 11:40:57;;;;;;;0.00;0.00;;;25.90;97.60;;;;;;5013790;28;20382;-81
2023/09/13 11:43:31;;;;;;;0.00;0.00;;;27.00;96.50;;;;;;5010957;28;20029;-88
2023/09/13 11:45:58;;;;;;;0.00;0.00;;;27.10;96.40;;;;;;5010805;28;20022;-85
2023/09/13 11:48:27;;;;;;;0.00;0.00;;;27.40;96.90;;;;;;5010973;28;20067;-88
2023/09/13 11:50:53;;;;;;;0.00;0.00;;;26.90;95.90;;;;;;5010017;28;20018;-84
2023/09/13 11:53:26;;;;;;;0.00;0.00;;;26.60;96.50;;;;;;5011045;28;20382;-87
2023/09/13 11:55:56;;;;;;;0.32;0.32;;;26.60;97.10;;;;;;5010655;28;20501;-89
2023/09/13 11:58:34;;;;;;;0.05;0.05;;;27.40;95.20;;;;;;5010789;28;20030;-89
2023/09/13 12:01:03;;;;;;;0.00;0.00;;;27.50;95.10;;;;;;5011610;28;20094;-88
2023/09/13 12:03:31;;;;;;;0.00;0.00;;;27.30;95.30;;;;;;5012809;28;20034;-85
2023/09/13 12:05:57;;;;;;;0.00;0.00;;;27.90;94.00;;;;;;5010090;28;20105;-84
2023/09/13 12:08:27;;;;;;;4.28;0.20;;;27.90;93.50;;;;;;5009577;28;20033;-89
2023/09/13 12:10:55;;;;;;;0.00;0.00;;;27.60;94.70;;;;;;5010547;28;20033;-90
2023/09/13 12:13:21;;;;;;;0.00;0.00;;;28.50;93.90;;;;;;5010821;28;20533;-91
2023/09/13 12:16:02;;;;;;;0.45;0.40;;;29.60;92.20;;;;;;5010375;28;20125;-75
2023/09/13 12:18:30;;;;;;;0.13;0.13;;;27.90;93.10;;;;;;5010321;28;20034;-90
2023/09/13 12:20:58;;;;;;;0.00;0.00;;;28.70;93.60;;;;;;5010221;28;20026;-91
2023/09/13 12:23:25;;;;;;;0.00;0.00;;;29.50;91.90;;;;;;5018826;28;20090;-83
2023/09/13 12:25:55;;;;;;;0.00;0.00;;;28.60;92.10;;;;;;5018145;28;20060;-82
2023/09/13 12:28:29;;;;;;;0.00;0.00;;;27.90;93.20;;;;;;5023236;28;20040;-89
2023/09/13 12:30:55;;;;;;;0.00;0.00;;;27.70;92.40;;;;;;5050944;28;20023;-90
2023/09/13 12:33:23;;;;;;;0.00;0.00;;;29.00;92.20;;;;;;5082826;28;20062;-86
2023/09/13 12:35:50;;;;;;;0.00;0.00;;;29.40;92.10;;;;;;5027866;28;20042;-87
2023/09/13 12:38:19;;;;;;;0.00;0.00;;;29.60;90.90;;;;;;5054298;28;20551;-89
2023/09/13 12:40:54;;;;;;;0.00;0.00;;;29.10;90.60;;;;;;5016401;28;20142;-89
2023/09/13 12:43:25;;;;;;;0.70;0.68;;;28.70;90.70;;;;;;5068569;28;20070;-89
2023/09/13 12:45:51;;;;;;;0.10;0.10;;;28.60;90.60;;;;;;5063415;28;20120;-82
2023/09/13 12:48:19;;;;;;;0.00;0.00;;;29.00;90.30;;;;;;5064131;28;20031;-88